首页
METAR-TAF:

METAR-TAF

机场 :

廊曼国际机场

曼谷, 泰国

纬度: 13-54-45N, 经度: 100-36-24E, 海拔: 4米

当前天气观测

该预报发布于42分钟前的01:30 UTC
风速8节,风向西转西南
温度 30°C
湿度 70%
气压 1006 hPa
能见度10公里或以上
少量云层高于2000英尺

METAR: VTBD 220130Z 25008KT 9999 FEW020 30/24 Q1006 NOSIG

时间: 09:12 (02:12 UTC)

预报

该预报发布于3小时和12分钟前的23:00 UTC
预报有效从22日的 00点(UTC)到 23日的 06点(UTC)
风速5节,风向西
能见度10公里或以上
少量云层高于2000英尺
成为
从 22日的 03点(UTC)到 22日的 05点(UTC)
风速8节,风向南转西南
短暂存在
从 22日的 09点(UTC)到 22日的 14点(UTC)
风速12节,风向西转西南
能見度: 6000
少量云层高于1800英尺, 积雨云.
散云层高于3000英尺
多云层高于10000英尺
雷暴, 小雨
成为
从 22日的 20点(UTC)到 22日的 22点(UTC)
风速5节,风向西
成为
从 23日的 02点(UTC)到 23日的 04点(UTC)
风速8节,风向南转西南

TAF: VTBD 212300Z 2200/2306 27005KT 9999 FEW020 BECMG 2203/2205 21008KT TEMPO 2209/2214 25012KT 6000 -TSRA FEW018CB SCT030 BKN100 BECMG 2220/2222 27005KT BECMG 2302/2304 21008KT

超过4000个机场的气象观测和天气预报(METAR&TAF报告)。

可查询的气象台以黄色和红色小点在地图上表示。

将鼠标移到小点上方,可查看气象台名称。

然后点击查看天气观测和预报。

如需切换地图:点击带黑十字的绿色按钮放大地图;点击带横线的绿色按钮缩小地图;或者点击绿色箭头查看邻近地区的地图。


METAR-TAF: